Medenales, New Mexico
Current Conditions -  °F | °C
As of 11:35 AM on Thursday 30 Oct 2014 (Local Time) from KLAM Reporting Station
Clear Clear  
Wind Chill: 54°   Ceiling: Unl
Heat Index: 54°   Visibility: 10mi
Dew Point: 16°   Wind: 7mph
Humidity: 22%   Direction: 160°SSE
Pressure: 30.43"   Gusts: NA
Location:  36.1769°N, 106.184°W
Report Text: KLAM 301735Z AUTO 16006KT 10SM CLR 12/M09 A3043 RMK AO2 T01231090
Loading
Personal Weather Stations






























Interactive Weather Map
Tropical Storm Tracking
New forecast layout! Learn more

10-Day Weather Forecast

Advertisements
Track Severe Weather on mobile